« BLUE on China Sea 那覇空港 2013/12/14 sat | トップページ | 那覇基地エアーフェスタ2013【フライト編1】 那覇空港 2013/12/15 sun »

2013/12/16

那覇基地エアーフェスタ2013【B.I.編】 那覇空港 2013/12/15 sun

天候は曇り。昨日よりも悪そうですが、雲高は高い。ずっと北東の風で安定しています。

20131215_roah_bi00

列線は、海自エプロン寄り

ROAH 150400Z 04015KT 9999 FEW035 BKN090 20/11 Q1022 RMK 2CU035 7AC090 A3019

20131215_roah_bi01

13時過ぎにご出勤。

20131215_roah_bi02

男は背中で物言う

20131215_roah_bi03

20131215_roah_bi04

13:41 タクシーアウト

20131215_roah_bi05

20131215_roah_bi06

20131215_roah_bi07

20131215_roah_bi08

RWは36

20131215_roah_bi09

20131215_roah_bi10

4・2の離陸

20131215_roah_bi11

ブルー隣の列線にあった大型機が、帰投に向け移動されていきました。

20131215_roah_bi12

20131215_roah_bi13

エシュロン・ローパス

20131215_roah_bi14

20131215_roah_bi15

リーダーズ・ベネフィット・ローパス

20131215_roah_bi16

スワン・ローパス

20131215_roah_bi17

20131215_roah_bi18

グランド・クロス・ローパス

20131215_roah_bi19

20131215_roah_bi20

20131215_roah_bi21

360°ターン

20131215_roah_bi22

20131215_roah_bi23

20131215_roah_bi24

20131215_roah_bi25

サクラ

20131215_roah_bi26

20131215_roah_bi27

キューピッド

20131215_roah_bi28

20131215_roah_bi29

20131215_roah_bi30

20131215_roah_bi31

クリスマスツリー・ローパス

20131215_roah_bi32

#1 46-5731

20131215_roah_bi33

#2 66-5745

20131215_roah_bi34

#3 46-5729

20131215_roah_bi35

#4 26-5805

20131215_roah_bi36

#5 46-5730

20131215_roah_bi37

#6 46-5725

20131215_roah_bi38

20131215_roah_bi39

取材陣の前をエプロンに帰還

20131215_roah_bi40

MARIKO様も見たい?

20131215_roah_bi41

20131215_roah_bi42

20131215_roah_bi43

今年も一年、ありがとうございました。新しい飛行隊長の下、来年も飛躍を期待します。

ROAH 150600Z 05011KT 9999 FEW030 BKN080 19/12 Q1021 RMK 1CU030 7AC080 A3017

|

« BLUE on China Sea 那覇空港 2013/12/14 sat | トップページ | 那覇基地エアーフェスタ2013【フライト編1】 那覇空港 2013/12/15 sun »

BI」カテゴリの記事

那覇空港」カテゴリの記事

コメント

コメントを書く



(ウェブ上には掲載しません)


コメントは記事投稿者が公開するまで表示されません。



トラックバック


この記事へのトラックバック一覧です: 那覇基地エアーフェスタ2013【B.I.編】 那覇空港 2013/12/15 sun:

« BLUE on China Sea 那覇空港 2013/12/14 sat | トップページ | 那覇基地エアーフェスタ2013【フライト編1】 那覇空港 2013/12/15 sun »